Time;durP1;ratioP1;P1;durP2;ratioP2;P2;SDS_P1;SDS_P2;PMS_P1;PMS_P2;Temp;Humidity;BMP_temperature;BMP_pressure;BME280_temperature;BME280_humidity;BME280_pressure;Samples;Min_cycle;Max_cycle;Signal;HPM_P1;HPM_P2
2022/03/08 00:01:20;;;;;;;24.10;12.13;;;;;;;5.19;50.92;102483.13;4941148;28;20054;-53
2022/03/08 00:03:48;;;;;;;22.30;11.88;;;;;;;5.19;50.39;102486.59;4933913;28;20581;-53
2022/03/08 00:06:17;;;;;;;21.70;11.68;;;;;;;5.08;50.46;102489.34;4923573;28;20517;-49
2022/03/08 00:08:43;;;;;;;23.42;11.65;;;;;;;5.12;50.40;102488.75;4936602;28;20134;-49
2022/03/08 00:11:09;;;;;;;20.95;11.85;;;;;;;4.98;51.00;102482.72;4939652;28;20053;-52
2022/03/08 00:13:34;;;;;;;21.00;11.50;;;;;;;5.11;51.02;102479.19;4938862;28;20532;-50
2022/03/08 00:16:00;;;;;;;21.52;11.55;;;;;;;5.15;50.80;102473.41;4933080;28;20145;-51
2022/03/08 00:18:26;;;;;;;22.05;11.38;;;;;;;5.01;51.08;102471.66;4938364;28;20354;-51
2022/03/08 00:20:51;;;;;;;22.00;11.60;;;;;;;4.97;50.79;102472.28;4937319;28;20520;-55
2022/03/08 00:23:17;;;;;;;25.25;11.18;;;;;;;4.93;50.57;102466.06;4941337;28;20069;-53
2022/03/08 00:25:42;;;;;;;21.48;11.43;;;;;;;4.94;50.82;102465.22;4935380;28;20142;-49
2022/03/08 00:28:08;;;;;;;22.20;11.80;;;;;;;4.95;50.68;102464.44;4933904;28;20054;-53
2022/03/08 00:30:35;;;;;;;20.08;11.18;;;;;;;4.79;51.27;102457.44;4939504;28;20038;-53
2022/03/08 00:33:01;;;;;;;21.60;11.40;;;;;;;4.75;50.98;102455.47;4938353;28;20257;-50
2022/03/08 00:35:26;;;;;;;21.40;11.15;;;;;;;4.83;50.64;102459.41;4942620;28;20035;-50
2022/03/08 00:37:53;;;;;;;21.13;11.38;;;;;;;4.82;50.45;102457.63;4930952;28;20526;-52
2022/03/08 00:40:21;;;;;;;20.65;11.30;;;;;;;4.76;50.72;102456.34;4939728;28;20050;-51
2022/03/08 00:42:47;;;;;;;22.33;11.02;;;;;;;4.67;51.56;102458.38;4940265;28;20125;-51
2022/03/08 00:45:13;;;;;;;20.42;11.32;;;;;;;4.65;51.57;102450.53;4937417;28;20653;-51
2022/03/08 00:47:40;;;;;;;23.38;11.40;;;;;;;4.75;51.47;102447.72;4937873;28;20042;-53
2022/03/08 00:50:17;;;;;;;21.00;11.30;;;;;;;4.87;50.64;102451.06;4927726;28;20552;-54
2022/03/08 00:52:42;;;;;;;26.60;11.50;;;;;;;4.66;50.80;102439.41;4935046;28;20059;-50
2022/03/08 00:55:09;;;;;;;20.63;10.48;;;;;;;4.85;49.91;102454.34;4928642;28;20133;-54
2022/03/08 00:57:34;;;;;;;19.88;10.75;;;;;;;4.85;49.79;102444.00;4938419;28;20122;-51
2022/03/08 01:00:00;;;;;;;20.65;10.75;;;;;;;4.93;49.91;102436.72;4927212;28;20356;-50
2022/03/08 01:02:25;;;;;;;23.38;11.10;;;;;;;4.87;50.33;102455.34;4938664;28;20490;-50
2022/03/08 01:04:51;;;;;;;21.45;10.48;;;;;;;4.72;50.27;102446.63;4928966;28;20977;-54
2022/03/08 01:07:17;;;;;;;20.50;11.20;;;;;;;4.64;51.25;102451.31;4938329;28;20051;-50
2022/03/08 01:09:43;;;;;;;22.55;11.15;;;;;;;4.70;50.51;102443.03;4938631;28;20046;-53
2022/03/08 01:12:08;;;;;;;24.13;10.93;;;;;;;4.63;50.41;102446.06;4928366;28;20452;-50
2022/03/08 01:14:34;;;;;;;24.45;10.90;;;;;;;4.67;50.78;102440.28;4938676;28;20838;-53
2022/03/08 01:16:59;;;;;;;20.67;10.55;;;;;;;4.65;51.04;102437.59;4936804;28;20093;-51
2022/03/08 01:19:25;;;;;;;21.60;11.20;;;;;;;4.57;51.42;102444.00;4937901;28;20114;-51
2022/03/08 01:21:50;;;;;;;21.40;11.07;;;;;;;4.57;51.25;102441.44;4936425;28;20059;-51
2022/03/08 01:24:16;;;;;;;21.70;10.90;;;;;;;4.41;50.76;102447.28;4933029;28;20050;-50
2022/03/08 01:26:41;;;;;;;18.67;10.35;;;;;;;4.57;50.52;102440.53;4932569;28;20053;-50
2022/03/08 01:29:07;;;;;;;20.13;10.90;;;;;;;4.44;50.90;102433.69;4935541;28;20972;-53
2022/03/08 01:31:32;;;;;;;20.92;10.80;;;;;;;4.43;50.98;102437.06;4934772;28;20042;-52
2022/03/08 01:33:58;;;;;;;21.45;10.48;;;;;;;4.55;50.22;102439.53;4937805;28;20134;-52
2022/03/08 01:36:25;;;;;;;18.00;10.25;;;;;;;4.69;49.85;102443.88;4935531;28;20047;-50
2022/03/08 01:38:51;;;;;;;20.27;10.07;;;;;;;4.41;50.83;102436.97;4939843;28;20308;-50
2022/03/08 01:41:17;;;;;;;20.65;11.00;;;;;;;4.53;50.03;102442.00;4928085;28;21515;-49
2022/03/08 01:43:43;;;;;;;22.83;11.18;;;;;;;4.54;50.71;102430.00;4938053;28;20121;-52
2022/03/08 01:46:11;;;;;;;19.73;10.60;;;;;;;4.31;50.19;102424.28;4930281;28;20638;-52
2022/03/08 01:48:37;;;;;;;18.05;9.43;;;;;;;4.54;49.34;102428.31;4936190;28;20034;-50
2022/03/08 01:51:02;;;;;;;19.98;10.10;;;;;;;4.51;49.80;102419.47;4936674;28;20046;-51
2022/03/08 01:53:28;;;;;;;19.63;10.25;;;;;;;4.70;48.67;102417.22;4941785;28;20690;-51
2022/03/08 01:55:53;;;;;;;19.13;9.85;;;;;;;4.60;48.89;102410.59;4930330;28;20125;-52
2022/03/08 01:58:18;;;;;;;18.30;9.88;;;;;;;4.59;49.52;102405.34;4937583;28;20054;-51
2022/03/08 02:00:44;;;;;;;21.13;10.10;;;;;;;4.52;49.43;102405.75;4935095;28;20042;-52
2022/03/08 02:03:09;;;;;;;18.67;9.30;;;;;;;4.49;49.23;102402.19;4940103;28;20445;-52
2022/03/08 02:05:35;;;;;;;20.55;9.48;;;;;;;4.46;48.79;102394.25;4936231;28;20157;-50
2022/03/08 02:08:00;;;;;;;17.52;9.30;;;;;;;4.49;48.46;102388.38;4929753;28;20047;-53
2022/03/08 02:10:26;;;;;;;17.00;9.15;;;;;;;4.58;48.03;102388.94;4936252;28;20074;-51
2022/03/08 02:12:51;;;;;;;18.25;9.65;;;;;;;4.54;48.79;102388.66;4936138;28;20038;-53
2022/03/08 02:15:18;;;;;;;18.20;9.57;;;;;;;4.54;48.75;102381.81;4940770;28;20125;-52
2022/03/08 02:17:44;;;;;;;21.27;10.55;;;;;;;4.51;49.26;102366.16;4935773;28;20105;-51
2022/03/08 02:20:11;;;;;;;18.30;9.82;;;;;;;4.38;49.11;102374.81;4927065;28;21271;-54
2022/03/08 02:22:38;;;;;;;22.00;9.88;;;;;;;4.27;49.69;102362.91;4939135;28;20489;-51
2022/03/08 02:25:04;;;;;;;18.88;9.65;;;;;;;4.18;50.13;102369.19;4939462;28;20039;-55
2022/03/08 02:27:30;;;;;;;19.65;9.80;;;;;;;4.19;50.10;102371.00;4938018;28;20134;-50
2022/03/08 02:29:57;;;;;;;20.23;9.65;;;;;;;4.17;49.90;102375.16;4932360;28;20141;-50
2022/03/08 02:32:23;;;;;;;20.17;9.63;;;;;;;4.15;50.23;102369.03;4944343;28;20079;-52
2022/03/08 02:34:48;;;;;;;19.77;9.85;;;;;;;4.04;49.96;102368.31;4942148;28;20338;-50
2022/03/08 02:37:14;;;;;;;19.20;9.70;;;;;;;3.92;50.72;102363.28;4940481;28;20460;-52
2022/03/08 02:39:40;;;;;;;20.42;10.43;;;;;;;3.92;50.90;102355.53;4942885;28;20070;-53
2022/03/08 02:42:06;;;;;;;20.17;10.38;;;;;;;3.81;51.24;102361.72;4931291;28;20114;-54
2022/03/08 02:44:33;;;;;;;18.00;9.50;;;;;;;3.81;50.27;102353.97;4941824;28;20709;-53
2022/03/08 02:47:04;;;;;;;20.77;10.23;;;;;;;3.80;50.75;102352.19;4938798;28;20050;-52
2022/03/08 02:49:31;;;;;;;19.17;9.63;;;;;;;3.70;50.46;102360.13;4937539;28;20042;-49
2022/03/08 02:51:57;;;;;;;18.60;9.60;;;;;;;3.87;50.51;102350.88;4935462;28;20053;-51
2022/03/08 02:54:23;;;;;;;19.40;9.60;;;;;;;3.75;50.72;102352.69;4937747;28;20477;-53
2022/03/08 02:56:48;;;;;;;17.92;9.20;;;;;;;3.85;49.97;102355.03;4943864;28;20787;-56
2022/03/08 02:59:22;;;;;;;17.42;9.10;;;;;;;3.78;51.07;102343.44;4931087;28;20062;-54
2022/03/08 03:01:48;;;;;;;27.25;9.98;;;;;;;3.71;50.63;102358.44;4940050;28;20047;-54
2022/03/08 03:04:14;;;;;;;18.85;9.75;;;;;;;3.65;51.21;102341.78;4934297;28;21828;-55
2022/03/08 03:06:40;;;;;;;18.73;9.30;;;;;;;3.68;51.15;102334.22;4933508;28;20294;-51
2022/03/08 03:09:05;;;;;;;17.02;9.30;;;;;;;3.56;50.73;102328.28;4932266;28;20043;-51
2022/03/08 03:11:31;;;;;;;20.55;9.10;;;;;;;3.66;50.88;102329.75;4936029;28;20469;-53
2022/03/08 03:13:56;;;;;;;18.88;9.52;;;;;;;3.61;51.34;102342.38;4935657;28;20043;-54
2022/03/08 03:16:21;;;;;;;18.45;9.15;;;;;;;3.52;51.39;102328.00;4936965;28;21226;-54
2022/03/08 03:18:47;;;;;;;16.70;9.25;;;;;;;3.44;51.19;102321.44;4936430;28;20146;-52
2022/03/08 03:21:12;;;;;;;19.25;9.18;;;;;;;3.46;51.76;102323.34;4941086;28;20149;-54
2022/03/08 03:23:37;;;;;;;18.02;9.40;;;;;;;3.48;51.81;102320.84;4943187;28;20545;-54
2022/03/08 03:26:03;;;;;;;19.52;9.23;;;;;;;3.46;52.01;102318.19;4936723;28;20042;-53
2022/03/08 03:28:28;;;;;;;16.33;8.80;;;;;;;3.32;51.47;102318.06;4935363;28;20573;-52
2022/03/08 03:30:53;;;;;;;19.58;9.73;;;;;;;3.37;52.01;102320.16;4938463;28;21023;-52
2022/03/08 03:33:19;;;;;;;16.45;8.93;;;;;;;3.44;51.55;102311.13;4940824;28;20042;-51
2022/03/08 03:35:44;;;;;;;16.50;8.90;;;;;;;3.41;51.59;102306.69;4934765;28;20560;-51
2022/03/08 03:38:10;;;;;;;18.30;8.80;;;;;;;3.42;51.49;102305.88;4927793;28;20116;-52
2022/03/08 03:40:38;;;;;;;18.45;9.00;;;;;;;3.31;51.86;102309.44;4940764;28;20109;-54
2022/03/08 03:43:04;;;;;;;19.20;8.85;;;;;;;3.24;52.26;102309.81;4942076;28;20081;-51
2022/03/08 03:45:29;;;;;;;20.77;9.55;;;;;;;3.26;51.83;102314.31;4941816;28;20137;-53
2022/03/08 03:47:55;;;;;;;17.80;9.70;;;;;;;3.26;52.20;102309.16;4931296;28;20091;-54
2022/03/08 03:50:20;;;;;;;19.08;10.02;;;;;;;3.16;52.35;102313.59;4938105;28;20047;-52
2022/03/08 03:52:45;;;;;;;16.50;8.82;;;;;;;3.20;52.72;102315.59;4935335;28;20721;-53
2022/03/08 03:55:12;;;;;;;18.13;9.40;;;;;;;3.14;52.05;102310.94;4941722;28;20053;-51
2022/03/08 03:57:38;;;;;;;18.17;9.27;;;;;;;3.04;52.50;102303.38;4930871;28;20043;-50
2022/03/08 04:00:06;;;;;;;26.60;9.30;;;;;;;3.14;51.59;102310.94;4932632;28;20050;-54
2022/03/08 04:02:31;;;;;;;16.75;9.43;;;;;;;3.13;52.70;102311.72;4940554;28;20047;-51
2022/03/08 04:04:57;;;;;;;17.63;9.40;;;;;;;3.16;51.85;102314.50;4937751;28;20074;-53
2022/03/08 04:07:22;;;;;;;16.98;8.98;;;;;;;3.14;52.39;102305.78;4940163;28;20370;-50
2022/03/08 04:09:49;;;;;;;20.15;9.48;;;;;;;3.08;52.30;102307.03;4936379;28;20045;-53
2022/03/08 04:12:16;;;;;;;19.60;9.07;;;;;;;3.07;52.22;102310.41;4934561;28;20323;-49
2022/03/08 04:14:41;;;;;;;16.30;8.80;;;;;;;3.02;52.57;102304.97;4944051;28;20038;-53
2022/03/08 04:17:06;;;;;;;19.00;9.15;;;;;;;3.03;52.06;102304.19;4939271;28;20070;-50
2022/03/08 04:19:32;;;;;;;16.67;8.45;;;;;;;2.94;53.18;102302.66;4939469;28;21150;-52
2022/03/08 04:21:57;;;;;;;18.23;9.45;;;;;;;2.91;52.90;102295.63;4930966;28;20054;-55
2022/03/08 04:24:23;;;;;;;19.45;9.68;;;;;;;3.04;52.01;102294.75;4937037;28;20039;-54
2022/03/08 04:26:48;;;;;;;19.48;9.40;;;;;;;2.99;52.21;102298.72;4939673;28;20418;-50
2022/03/08 04:29:13;;;;;;;18.25;9.52;;;;;;;3.05;51.72;102296.56;4940865;28;20165;-51
2022/03/08 04:31:39;;;;;;;18.73;8.95;;;;;;;2.99;52.47;102289.28;4936155;28;20112;-51
2022/03/08 04:34:04;;;;;;;19.85;9.25;;;;;;;2.99;52.19;102291.00;4930604;28;20405;-55
2022/03/08 04:36:29;;;;;;;19.50;9.23;;;;;;;2.95;52.21;102291.56;4941196;28;20051;-53
2022/03/08 04:38:55;;;;;;;20.63;9.57;;;;;;;2.89;52.20;102293.72;4934666;28;20059;-50
2022/03/08 04:41:20;;;;;;;18.13;9.20;;;;;;;2.96;51.96;102293.34;4934764;28;20041;-53
2022/03/08 04:43:46;;;;;;;20.30;9.73;;;;;;;3.12;52.31;102289.31;4939006;28;20316;-53
2022/03/08 04:46:12;;;;;;;18.10;9.10;;;;;;;3.17;51.60;102290.50;4930763;28;20796;-50
2022/03/08 04:48:37;;;;;;;22.23;9.65;;;;;;;3.03;51.83;102291.28;4942906;28;20171;-55
2022/03/08 04:51:02;;;;;;;19.08;9.15;;;;;;;2.83;53.02;102286.50;4932584;28;20109;-51
2022/03/08 04:53:28;;;;;;;17.98;9.10;;;;;;;2.91;52.00;102282.75;4940541;28;20045;-53
2022/03/08 04:55:53;;;;;;;17.83;8.90;;;;;;;3.07;51.28;102287.22;4934972;28;20497;-52
2022/03/08 04:58:18;;;;;;;18.50;8.63;;;;;;;3.08;51.11;102282.19;4933649;28;20048;-54
2022/03/08 05:00:44;;;;;;;23.48;9.48;;;;;;;3.10;51.29;102278.03;4937742;28;20074;-51
2022/03/08 05:03:09;;;;;;;19.73;9.07;;;;;;;3.06;51.95;102281.16;4938454;28;20529;-54
2022/03/08 05:05:35;;;;;;;19.00;9.73;;;;;;;2.99;51.74;102289.28;4933597;28;20233;-53
2022/03/08 05:08:00;;;;;;;20.00;9.73;;;;;;;2.90;52.23;102274.91;4933986;28;20055;-51
2022/03/08 05:10:26;;;;;;;17.05;8.95;;;;;;;3.14;50.99;102285.16;4927975;28;20553;-53
2022/03/08 05:12:52;;;;;;;21.23;9.38;;;;;;;3.13;51.21;102280.78;4938704;28;20039;-52
2022/03/08 05:15:17;;;;;;;19.35;9.25;;;;;;;3.28;50.76;102278.34;4937324;28;20043;-54
2022/03/08 05:17:43;;;;;;;19.38;9.05;;;;;;;3.35;50.14;102280.53;4936656;28;20494;-50
2022/03/08 05:20:09;;;;;;;18.50;9.50;;;;;;;3.22;50.46;102280.50;4929158;28;20396;-54
2022/03/08 05:22:34;;;;;;;19.08;9.30;;;;;;;3.04;50.71;102274.16;4939572;28;20054;-53
2022/03/08 05:25:00;;;;;;;17.30;8.82;;;;;;;3.13;51.00;102270.47;4937936;28;20461;-53
2022/03/08 05:27:25;;;;;;;16.98;8.75;;;;;;;3.01;51.17;102266.22;4935722;28;20500;-54
2022/03/08 05:29:51;;;;;;;18.13;9.07;;;;;;;3.01;50.73;102261.94;4936085;28;20073;-51
2022/03/08 05:32:17;;;;;;;16.77;8.88;;;;;;;2.96;51.15;102262.44;4916787;28;20807;-55
2022/03/08 05:34:43;;;;;;;21.75;9.07;;;;;;;2.87;51.14;102257.56;4939531;28;20522;-50
2022/03/08 05:37:08;;;;;;;21.35;9.15;;;;;;;3.07;50.57;102256.31;4940762;28;20042;-53
2022/03/08 05:39:33;;;;;;;17.73;9.35;;;;;;;3.08;50.30;102250.38;4937561;28;20038;-53
2022/03/08 05:41:59;;;;;;;19.13;9.10;;;;;;;3.19;50.09;102249.38;4927694;28;20656;-52
2022/03/08 05:44:24;;;;;;;18.65;9.50;;;;;;;3.13;50.65;102239.56;4931128;28;20050;-53
2022/03/08 05:46:50;;;;;;;16.33;8.70;;;;;;;2.97;50.71;102234.22;4936700;28;20070;-50
2022/03/08 05:49:16;;;;;;;19.60;9.75;;;;;;;3.08;50.90;102242.63;4933537;28;20766;-50
2022/03/08 05:51:42;;;;;;;20.02;9.73;;;;;;;3.21;50.14;102229.75;4933521;28;20074;-53
2022/03/08 05:54:08;;;;;;;20.10;9.52;;;;;;;3.23;49.67;102241.06;4934672;28;20602;-54
2022/03/08 05:56:33;;;;;;;16.65;8.90;;;;;;;3.30;50.08;102237.16;4932607;28;20453;-52
2022/03/08 05:58:58;;;;;;;19.05;9.48;;;;;;;3.30;50.64;102245.78;4939208;28;20062;-54
2022/03/08 06:01:24;;;;;;;17.70;9.32;;;;;;;3.21;50.76;102242.66;4939111;28;20065;-54
2022/03/08 06:03:49;;;;;;;21.08;9.32;;;;;;;3.19;50.62;102250.25;4937226;28;20043;-54
2022/03/08 06:06:15;;;;;;;21.48;10.40;;;;;;;3.15;51.04;102245.72;4935008;28;20541;-52
2022/03/08 06:08:40;;;;;;;20.42;9.15;;;;;;;3.15;50.62;102244.81;4941523;28;20123;-52
2022/03/08 06:11:06;;;;;;;22.77;9.45;;;;;;;3.18;50.66;102248.47;4942555;28;20043;-53
2022/03/08 06:13:31;;;;;;;17.10;9.13;;;;;;;3.28;49.99;102243.94;4940053;28;20035;-54
2022/03/08 06:15:57;;;;;;;20.15;9.82;;;;;;;3.29;50.09;102238.88;4934845;28;20046;-50
2022/03/08 06:18:22;;;;;;;19.55;9.57;;;;;;;3.24;50.02;102240.25;4939327;28;20054;-50
2022/03/08 06:20:47;;;;;;;18.83;9.10;;;;;;;3.30;50.39;102239.75;4939646;28;20436;-49
2022/03/08 06:23:13;;;;;;;19.17;9.55;;;;;;;3.24;49.97;102247.97;4939871;28;20831;-53
2022/03/08 06:25:38;;;;;;;21.40;9.52;;;;;;;3.20;49.91;102246.00;4943517;28;20665;-54
2022/03/08 06:28:04;;;;;;;19.35;9.63;;;;;;;3.29;50.26;102256.94;4931269;28;20058;-51
2022/03/08 06:30:29;;;;;;;23.02;9.35;;;;;;;3.26;49.96;102249.88;4944643;28;20051;-49
2022/03/08 06:32:55;;;;;;;18.83;9.90;;;;;;;3.24;50.72;102250.56;4942040;28;20113;-54
2022/03/08 06:35:20;;;;;;;18.00;9.15;;;;;;;3.33;49.70;102247.69;4940983;28;20039;-53
2022/03/08 06:37:46;;;;;;;18.58;9.57;;;;;;;3.25;50.70;102252.34;4937721;28;20679;-56
2022/03/08 06:40:12;;;;;;;17.98;9.32;;;;;;;3.31;50.26;102255.31;4933843;28;20119;-54
2022/03/08 06:42:37;;;;;;;20.52;9.75;;;;;;;3.33;50.08;102263.16;4936315;28;20054;-53
2022/03/08 06:45:05;;;;;;;26.27;10.00;;;;;;;3.34;50.49;102260.69;4940696;28;20371;-53
2022/03/08 06:47:30;;;;;;;20.52;9.63;;;;;;;3.46;49.46;102264.03;4941079;28;20051;-52
2022/03/08 06:49:55;;;;;;;18.20;8.98;;;;;;;3.29;50.35;102271.50;4931379;28;20057;-53
2022/03/08 06:52:20;;;;;;;18.50;9.20;;;;;;;3.45;49.19;102262.25;4942552;28;20055;-52
2022/03/08 06:54:46;;;;;;;20.00;9.25;;;;;;;3.56;49.71;102268.97;4937615;28;20126;-53
2022/03/08 06:57:11;;;;;;;19.80;9.52;;;;;;;3.85;49.14;102264.75;4940553;28;20126;-55
2022/03/08 06:59:37;;;;;;;19.33;9.85;;;;;;;4.44;48.04;102260.69;4941201;28;20157;-52
2022/03/08 07:02:03;;;;;;;20.27;9.57;;;;;;;5.06;46.03;102254.00;4931380;28;20469;-50
2022/03/08 07:04:29;;;;;;;19.17;9.38;;;;;;;5.91;44.62;102257.97;4943145;28;20050;-53
2022/03/08 07:06:55;;;;;;;20.02;9.68;;;;;;;6.03;44.10;102246.56;4938359;28;20051;-52
2022/03/08 07:09:20;;;;;;;16.75;9.45;;;;;;;5.90;43.61;102245.84;4937388;28;20419;-52
2022/03/08 07:11:46;;;;;;;18.83;9.48;;;;;;;6.16;42.64;102252.41;4942629;28;20454;-53
2022/03/08 07:14:15;;;;;;;19.00;9.90;;;;;;;6.21;42.65;102250.94;4929856;28;20042;-54
2022/03/08 07:16:44;;;;;;;16.33;9.55;;;;;;;6.33;42.23;102246.41;4942767;28;20049;-55
2022/03/08 07:19:10;;;;;;;18.98;10.38;;;;;;;6.53;42.55;102253.50;4936074;28;20054;-52
2022/03/08 07:21:35;;;;;;;18.02;9.27;;;;;;;6.19;41.95;102235.31;4938321;28;20047;-51
2022/03/08 07:24:00;;;;;;;16.67;9.05;;;;;;;6.65;40.87;102248.94;4929283;28;20054;-51
2022/03/08 07:26:26;;;;;;;19.95;10.00;;;;;;;6.71;41.64;102243.22;4938112;28;20070;-49
2022/03/08 07:28:52;;;;;;;19.98;10.23;;;;;;;6.24;42.91;102240.72;4939207;28;20047;-51
2022/03/08 07:31:17;;;;;;;17.58;9.68;;;;;;;6.24;41.98;102241.63;4936882;28;20113;-52
2022/03/08 07:33:42;;;;;;;19.92;10.48;;;;;;;5.86;43.45;102249.00;4940894;28;20121;-53
2022/03/08 07:36:08;;;;;;;22.75;9.95;;;;;;;5.42;44.46;102246.59;4931672;28;20399;-50
2022/03/08 07:38:34;;;;;;;17.50;9.88;;;;;;;5.22;45.48;102255.81;4938085;28;20039;-53
2022/03/08 07:40:59;;;;;;;19.88;10.02;;;;;;;5.29;45.16;102247.59;4936381;28;20286;-53
2022/03/08 07:43:24;;;;;;;19.90;10.40;;;;;;;4.77;45.27;102252.34;4929414;28;20053;-54
2022/03/08 07:45:50;;;;;;;18.30;9.90;;;;;;;4.93;45.96;102261.00;4937468;28;20670;-49
2022/03/08 07:48:15;;;;;;;28.75;10.07;;;;;;;4.88;45.85;102248.69;4926174;28;20681;-55
2022/03/08 07:50:41;;;;;;;23.80;9.88;;;;;;;4.72;46.56;102247.72;4932140;28;20081;-55
2022/03/08 07:53:07;;;;;;;17.25;9.60;;;;;;;4.94;46.40;102252.44;4941451;28;20039;-52
2022/03/08 07:55:32;;;;;;;19.17;10.25;;;;;;;5.17;46.76;102249.47;4935560;28;20047;-56
2022/03/08 07:58:00;;;;;;;20.08;9.95;;;;;;;5.30;45.97;102249.38;4930686;28;20053;-54
2022/03/08 08:00:27;;;;;;;19.10;10.52;;;;;;;5.66;45.54;102259.19;4930801;28;20510;-55
2022/03/08 08:02:52;;;;;;;17.73;9.98;;;;;;;5.40;44.46;102255.94;4936401;28;20414;-55
2022/03/08 08:05:19;;;;;;;20.70;10.32;;;;;;;5.58;45.04;102265.63;4939744;28;20133;-52
2022/03/08 08:07:45;;;;;;;18.52;10.25;;;;;;;5.75;44.47;102273.41;4937380;28;20340;-54
2022/03/08 08:10:11;;;;;;;18.30;10.30;;;;;;;5.83;44.68;102274.72;4933462;28;20543;-53
2022/03/08 08:12:37;;;;;;;20.08;10.75;;;;;;;5.83;44.82;102273.03;4934750;28;20038;-53
2022/03/08 08:15:04;;;;;;;17.55;9.63;;;;;;;5.75;44.53;102276.00;4934282;28;20103;-54
2022/03/08 08:17:30;;;;;;;16.75;9.25;;;;;;;5.99;43.84;102280.84;4935485;28;20081;-52
2022/03/08 08:19:55;;;;;;;19.42;9.77;;;;;;;6.05;43.69;102276.00;4926728;28;20122;-50
2022/03/08 08:22:21;;;;;;;17.88;10.23;;;;;;;6.17;44.03;102262.81;4930666;28;20846;-51
2022/03/08 08:24:46;;;;;;;18.05;10.32;;;;;;;6.19;43.63;102268.09;4934150;28;20034;-53
2022/03/08 08:27:11;;;;;;;18.83;10.13;;;;;;;6.08;43.42;102267.53;4934902;28;20572;-54
2022/03/08 08:29:37;;;;;;;17.98;10.02;;;;;;;6.25;44.10;102261.53;4930536;28;20047;-52
2022/03/08 08:32:03;;;;;;;20.92;10.38;;;;;;;6.67;43.07;102262.88;4927516;28;20461;-49
2022/03/08 08:34:28;;;;;;;19.02;9.95;;;;;;;6.36;42.78;102260.41;4936980;28;20103;-52
2022/03/08 08:36:54;;;;;;;17.42;9.90;;;;;;;6.02;43.58;102265.50;4933509;28;20403;-53
2022/03/08 08:39:19;;;;;;;20.70;10.13;;;;;;;6.34;42.55;102253.38;4939375;28;20144;-52
2022/03/08 08:41:45;;;;;;;18.08;10.38;;;;;;;6.16;42.99;102260.19;4934380;28;20026;-52
2022/03/08 08:44:11;;;;;;;16.75;9.77;;;;;;;6.17;42.51;102257.66;4926397;28;20402;-54
2022/03/08 08:46:37;;;;;;;17.92;10.27;;;;;;;6.32;42.82;102253.28;4933377;28;20050;-53
2022/03/08 08:49:04;;;;;;;20.42;9.80;;;;;;;6.45;42.81;102244.47;4934782;28;20273;-50
2022/03/08 08:51:29;;;;;;;18.73;10.15;;;;;;;6.48;43.38;102237.72;4935938;28;20823;-53
2022/03/08 08:53:55;;;;;;;24.13;10.35;;;;;;;6.45;42.59;102239.28;4930538;28;20043;-53
2022/03/08 08:56:20;;;;;;;16.58;9.88;;;;;;;6.81;41.67;102235.97;4936224;28;20509;-55
2022/03/08 08:58:45;;;;;;;27.45;10.40;;;;;;;6.59;41.96;102233.06;4938306;28;20051;-51
2022/03/08 09:01:11;;;;;;;18.88;9.65;;;;;;;6.96;41.72;102227.16;4933263;28;20034;-54
2022/03/08 09:03:36;;;;;;;19.65;9.98;;;;;;;6.92;41.50;102232.19;4937161;28;20320;-55
2022/03/08 09:06:01;;;;;;;18.17;9.68;;;;;;;7.08;40.90;102230.34;4921993;28;20295;-52
2022/03/08 09:08:27;;;;;;;18.95;10.25;;;;;;;7.05;41.06;102227.63;4931415;28;20053;-55
2022/03/08 09:10:54;;;;;;;19.42;10.00;;;;;;;7.24;41.07;102232.88;4940084;28;20059;-53
2022/03/08 09:13:21;;;;;;;31.13;10.30;;;;;;;6.95;40.89;102231.47;4932281;28;20047;-51
2022/03/08 09:15:46;;;;;;;17.58;9.75;;;;;;;7.16;40.95;102224.72;4929616;28;20030;-49
2022/03/08 09:18:11;;;;;;;17.95;10.60;;;;;;;7.17;40.30;102218.72;4927916;28;22988;-53
2022/03/08 09:20:38;;;;;;;18.85;9.88;;;;;;;7.48;40.42;102226.28;4930760;28;20031;-54
2022/03/08 09:23:04;;;;;;;20.85;10.48;;;;;;;7.55;39.74;102217.06;4933203;28;20109;-54
2022/03/08 09:25:30;;;;;;;18.35;9.88;;;;;;;7.79;39.32;102212.13;4937055;28;20054;-53
2022/03/08 09:27:56;;;;;;;19.40;10.00;;;;;;;7.80;39.63;102216.50;4930990;28;20046;-53
2022/03/08 09:30:21;;;;;;;20.08;9.80;;;;;;;7.87;38.85;102216.84;4935745;28;20132;-53
2022/03/08 09:32:47;;;;;;;18.85;10.05;;;;;;;8.12;39.65;102224.91;4936875;28;20074;-53
2022/03/08 09:35:12;;;;;;;17.65;9.38;;;;;;;7.94;38.71;102213.69;4933271;28;20047;-53
2022/03/08 09:37:38;;;;;;;19.60;10.20;;;;;;;7.75;39.18;102216.28;4934879;28;20717;-50
2022/03/08 09:40:04;;;;;;;16.92;9.75;;;;;;;7.85;37.73;102218.50;4924919;28;20047;-51
2022/03/08 09:42:30;;;;;;;18.02;8.93;;;;;;;8.00;36.75;102218.28;4926197;28;20062;-52
2022/03/08 09:44:56;;;;;;;23.92;9.13;;;;;;;7.71;37.58;102220.44;4936302;28;20520;-54
2022/03/08 09:47:22;;;;;;;18.95;9.43;;;;;;;7.99;37.63;102213.94;4926820;28;20386;-52
2022/03/08 09:49:49;;;;;;;17.13;9.57;;;;;;;7.92;37.18;102227.44;4933550;28;20118;-51
2022/03/08 09:52:15;;;;;;;20.10;9.38;;;;;;;7.84;37.93;102215.81;4933729;28;20149;-55
2022/03/08 09:54:43;;;;;;;22.10;10.00;;;;;;;8.17;37.51;102216.47;4933743;28;20061;-52
2022/03/08 09:57:13;;;;;;;17.40;9.38;;;;;;;8.26;37.39;102199.56;4935729;28;20134;-52
2022/03/08 09:59:40;;;;;;;20.13;9.27;;;;;;;8.41;36.19;102204.56;4930716;28;20462;-53
2022/03/08 10:02:05;;;;;;;18.00;9.55;;;;;;;8.53;36.49;102205.09;4922500;28;20545;-53
2022/03/08 10:04:31;;;;;;;15.73;9.30;;;;;;;8.70;36.27;102201.50;4938631;28;20158;-51
2022/03/08 10:06:57;;;;;;;20.40;9.25;;;;;;;8.62;35.97;102191.59;4934706;28;20145;-52
2022/03/08 10:09:23;;;;;;;17.85;9.88;;;;;;;8.11;36.23;102202.34;4936134;28;20050;-53
2022/03/08 10:11:53;;;;;;;18.15;10.00;;;;;;;8.07;37.11;102209.94;4936537;28;20347;-53
2022/03/08 10:14:39;;;;;;;16.15;9.48;;;;;;;8.20;37.18;102209.69;4935518;28;20055;-51
2022/03/08 10:17:06;;;;;;;18.15;10.27;;;;;;;8.17;37.22;102198.28;4936955;28;20170;-54
2022/03/08 10:19:45;;;;;;;17.00;10.20;;;;;;;8.46;36.75;102188.34;4933695;28;20133;-54
2022/03/08 10:22:32;;;;;;;17.38;9.50;;;;;;;8.92;36.53;102193.75;4929510;28;20455;-50
2022/03/08 10:25:16;;;;;;;19.38;9.80;;;;;;;9.00;36.31;102194.06;4935840;28;20054;-51
2022/03/08 10:28:02;;;;;;;16.95;9.93;;;;;;;8.93;36.55;102176.44;4935138;28;20041;-53
2022/03/08 10:30:43;;;;;;;17.90;9.82;;;;;;;9.01;36.61;102180.25;4933709;28;20567;-54
2022/03/08 10:33:08;;;;;;;16.92;9.60;;;;;;;9.21;35.84;102174.09;4937350;28;20696;-50
2022/03/08 10:35:38;;;;;;;19.63;10.27;;;;;;;9.02;36.79;102173.34;4936364;28;20339;-52
2022/03/08 10:38:08;;;;;;;17.05;10.10;;;;;;;9.15;36.00;102165.19;4928477;28;20043;-55
2022/03/08 10:40:34;;;;;;;18.40;9.85;;;;;;;9.08;35.71;102174.47;4940485;28;20065;-50
2022/03/08 10:43:01;;;;;;;16.42;9.52;;;;;;;8.89;37.00;102165.03;4931397;28;20058;-51
2022/03/08 10:45:28;;;;;;;19.17;9.65;;;;;;;8.85;36.07;102159.63;4941733;28;20573;-50
2022/03/08 10:47:55;;;;;;;16.85;9.43;;;;;;;9.08;36.22;102157.97;4924082;28;20158;-51
2022/03/08 10:50:32;;;;;;;16.42;9.65;;;;;;;8.74;35.78;102148.78;4936982;28;20034;-50
2022/03/08 10:52:59;;;;;;;15.82;9.90;;;;;;;9.05;36.16;102145.72;4942352;28;20472;-51
2022/03/08 10:55:29;;;;;;;18.00;9.40;;;;;;;9.11;34.81;102145.06;4936336;28;20046;-53
2022/03/08 10:57:56;;;;;;;19.13;9.25;;;;;;;8.90;35.55;102138.16;4940372;28;20437;-54
2022/03/08 11:00:23;;;;;;;19.33;9.45;;;;;;;9.08;35.41;102142.34;4931338;28;20538;-53
2022/03/08 11:02:55;;;;;;;17.67;9.82;;;;;;;9.21;35.59;102139.41;4940910;28;20038;-50
2022/03/08 11:05:23;;;;;;;18.67;9.20;;;;;;;9.17;35.20;102134.91;4930653;28;20083;-52
2022/03/08 11:07:49;;;;;;;18.67;9.23;;;;;;;9.30;35.26;102140.66;4929986;28;20127;-53
2022/03/08 11:10:17;;;;;;;15.93;9.13;;;;;;;9.02;34.81;102140.41;4932508;28;20511;-54
2022/03/08 11:12:42;;;;;;;15.90;9.00;;;;;;;9.07;34.42;102131.06;4938623;28;20051;-53
2022/03/08 11:15:10;;;;;;;18.65;9.20;;;;;;;8.95;35.09;102139.28;4941389;28;20927;-54
2022/03/08 11:17:37;;;;;;;17.70;9.45;;;;;;;9.43;35.30;102120.28;4924933;28;20083;-53